sensor_id;sensor_type;location;lat;lon;timestamp;pressure;altitude;pressure_sealevel;temperature;humidity
52839;BME280;39219;53.678;9.856;2022-08-19T00:01:46;101058.91;;;20.12;100.00
52839;BME280;39219;53.678;9.856;2022-08-19T00:04:15;101051.84;;;20.10;100.00
52839;BME280;39219;53.678;9.856;2022-08-19T00:06:44;101052.63;;;20.12;100.00
52839;BME280;39219;53.678;9.856;2022-08-19T00:09:13;101041.84;;;20.12;100.00
52839;BME280;39219;53.678;9.856;2022-08-19T00:11:40;101042.03;;;20.09;100.00
52839;BME280;39219;53.678;9.856;2022-08-19T00:14:09;101039.31;;;20.09;100.00
52839;BME280;39219;53.678;9.856;2022-08-19T00:16:37;101031.25;;;20.09;100.00
52839;BME280;39219;53.678;9.856;2022-08-19T00:19:04;101025.97;;;20.07;100.00
52839;BME280;39219;53.678;9.856;2022-08-19T00:21:31;101021.41;;;20.08;100.00
52839;BME280;39219;53.678;9.856;2022-08-19T00:23:58;101025.25;;;20.04;100.00
52839;BME280;39219;53.678;9.856;2022-08-19T00:26:26;101031.88;;;19.98;100.00
52839;BME280;39219;53.678;9.856;2022-08-19T00:28:53;101027.63;;;19.94;100.00
52839;BME280;39219;53.678;9.856;2022-08-19T00:31:22;101038.41;;;19.94;100.00
52839;BME280;39219;53.678;9.856;2022-08-19T00:33:50;101039.38;;;19.93;100.00
52839;BME280;39219;53.678;9.856;2022-08-19T00:36:17;101039.25;;;19.94;100.00
52839;BME280;39219;53.678;9.856;2022-08-19T00:38:44;101035.44;;;19.98;100.00
52839;BME280;39219;53.678;9.856;2022-08-19T00:41:13;101019.25;;;19.98;100.00
52839;BME280;39219;53.678;9.856;2022-08-19T00:43:40;101020.16;;;19.99;100.00
52839;BME280;39219;53.678;9.856;2022-08-19T00:46:07;101018.47;;;19.96;100.00
52839;BME280;39219;53.678;9.856;2022-08-19T00:48:35;101019.44;;;19.95;100.00
52839;BME280;39219;53.678;9.856;2022-08-19T00:51:03;101029.38;;;19.95;100.00
52839;BME280;39219;53.678;9.856;2022-08-19T00:53:31;101018.78;;;19.92;100.00
52839;BME280;39219;53.678;9.856;2022-08-19T00:56:00;101022.50;;;19.89;100.00
52839;BME280;39219;53.678;9.856;2022-08-19T00:58:33;101021.66;;;19.89;100.00
52839;BME280;39219;53.678;9.856;2022-08-19T01:01:00;101022.66;;;19.86;100.00
52839;BME280;39219;53.678;9.856;2022-08-19T01:03:27;101018.03;;;19.88;100.00
52839;BME280;39219;53.678;9.856;2022-08-19T01:05:55;101023.88;;;19.80;100.00
52839;BME280;39219;53.678;9.856;2022-08-19T01:08:23;101016.84;;;19.78;100.00
52839;BME280;39219;53.678;9.856;2022-08-19T01:10:52;101013.28;;;19.77;100.00
52839;BME280;39219;53.678;9.856;2022-08-19T01:13:23;101020.50;;;19.77;100.00
52839;BME280;39219;53.678;9.856;2022-08-19T01:15:55;101016.16;;;19.74;100.00
52839;BME280;39219;53.678;9.856;2022-08-19T01:18:23;101023.44;;;19.72;100.00
52839;BME280;39219;53.678;9.856;2022-08-19T01:20:52;101010.16;;;19.69;100.00
52839;BME280;39219;53.678;9.856;2022-08-19T01:23:21;101004.34;;;19.77;100.00
52839;BME280;39219;53.678;9.856;2022-08-19T01:26:08;101001.53;;;19.78;100.00
52839;BME280;39219;53.678;9.856;2022-08-19T01:28:36;100997.47;;;19.71;100.00
52839;BME280;39219;53.678;9.856;2022-08-19T01:31:02;100994.00;;;19.69;100.00
52839;BME280;39219;53.678;9.856;2022-08-19T01:33:29;101000.44;;;19.66;100.00
52839;BME280;39219;53.678;9.856;2022-08-19T01:36:04;101002.34;;;19.64;100.00
52839;BME280;39219;53.678;9.856;2022-08-19T01:38:36;101006.00;;;19.63;100.00
52839;BME280;39219;53.678;9.856;2022-08-19T01:41:04;101001.81;;;19.58;100.00
52839;BME280;39219;53.678;9.856;2022-08-19T01:43:31;101000.47;;;19.50;100.00
52839;BME280;39219;53.678;9.856;2022-08-19T01:45:57;100998.56;;;19.52;100.00
52839;BME280;39219;53.678;9.856;2022-08-19T01:48:24;100994.03;;;19.53;100.00
52839;BME280;39219;53.678;9.856;2022-08-19T01:50:50;101000.19;;;19.55;100.00
52839;BME280;39219;53.678;9.856;2022-08-19T01:53:17;100996.72;;;19.53;100.00
52839;BME280;39219;53.678;9.856;2022-08-19T01:55:45;100985.09;;;19.52;100.00
52839;BME280;39219;53.678;9.856;2022-08-19T01:58:17;100979.59;;;19.54;100.00
52839;BME280;39219;53.678;9.856;2022-08-19T02:00:45;100978.81;;;19.52;100.00
52839;BME280;39219;53.678;9.856;2022-08-19T02:03:12;100979.09;;;19.47;100.00
52839;BME280;39219;53.678;9.856;2022-08-19T02:05:41;100976.31;;;19.49;100.00
52839;BME280;39219;53.678;9.856;2022-08-19T02:08:08;100979.09;;;19.47;100.00
52839;BME280;39219;53.678;9.856;2022-08-19T02:10:39;100970.84;;;19.50;100.00
52839;BME280;39219;53.678;9.856;2022-08-19T02:13:07;100980.84;;;19.48;100.00
52839;BME280;39219;53.678;9.856;2022-08-19T02:15:33;100969.47;;;19.43;100.00
52839;BME280;39219;53.678;9.856;2022-08-19T02:18:00;100969.47;;;19.43;100.00
52839;BME280;39219;53.678;9.856;2022-08-19T02:20:26;100960.84;;;19.36;100.00
52839;BME280;39219;53.678;9.856;2022-08-19T02:22:53;100963.47;;;19.38;100.00
52839;BME280;39219;53.678;9.856;2022-08-19T02:25:19;100963.72;;;19.33;100.00
52839;BME280;39219;53.678;9.856;2022-08-19T02:27:46;100966.69;;;19.29;100.00
52839;BME280;39219;53.678;9.856;2022-08-19T02:30:16;100971.28;;;19.27;100.00
52839;BME280;39219;53.678;9.856;2022-08-19T02:32:43;100974.94;;;19.26;100.00
52839;BME280;39219;53.678;9.856;2022-08-19T02:35:10;100966.84;;;19.26;100.00
52839;BME280;39219;53.678;9.856;2022-08-19T02:37:36;100960.50;;;19.27;100.00
52839;BME280;39219;53.678;9.856;2022-08-19T02:40:20;100955.38;;;19.22;100.00
52839;BME280;39219;53.678;9.856;2022-08-19T02:42:47;100955.56;;;19.19;100.00
52839;BME280;39219;53.678;9.856;2022-08-19T02:45:15;100944.28;;;19.12;100.00
52839;BME280;39219;53.678;9.856;2022-08-19T02:47:41;100944.19;;;19.14;100.00
52839;BME280;39219;53.678;9.856;2022-08-19T02:50:09;100938.81;;;19.14;100.00
52839;BME280;39219;53.678;9.856;2022-08-19T02:52:36;100937.94;;;19.13;100.00
52839;BME280;39219;53.678;9.856;2022-08-19T02:55:03;100941.75;;;19.09;100.00
52839;BME280;39219;53.678;9.856;2022-08-19T02:57:29;100955.13;;;19.11;100.00
52839;BME280;39219;53.678;9.856;2022-08-19T02:59:56;100952.84;;;19.03;100.00
52839;BME280;39219;53.678;9.856;2022-08-19T03:02:25;100958.94;;;19.06;100.00
52839;BME280;39219;53.678;9.856;2022-08-19T03:04:52;100963.56;;;19.04;100.00
52839;BME280;39219;53.678;9.856;2022-08-19T03:07:18;100967.81;;;19.08;100.00
52839;BME280;39219;53.678;9.856;2022-08-19T03:09:45;100960.59;;;19.09;100.00
52839;BME280;39219;53.678;9.856;2022-08-19T03:12:11;100961.38;;;19.11;100.00
52839;BME280;39219;53.678;9.856;2022-08-19T03:14:38;100963.28;;;19.09;100.00
52839;BME280;39219;53.678;9.856;2022-08-19T03:17:05;100966.16;;;19.06;100.00
52839;BME280;39219;53.678;9.856;2022-08-19T03:19:33;100958.84;;;19.08;100.00
52839;BME280;39219;53.678;9.856;2022-08-19T03:21:59;100952.63;;;19.07;100.00
52839;BME280;39219;53.678;9.856;2022-08-19T03:24:26;100974.16;;;19.07;100.00
52839;BME280;39219;53.678;9.856;2022-08-19T03:26:54;100970.41;;;19.10;100.00
52839;BME280;39219;53.678;9.856;2022-08-19T03:29:23;100967.63;;;19.12;100.00
52839;BME280;39219;53.678;9.856;2022-08-19T03:31:50;100957.72;;;19.12;100.00
52839;BME280;39219;53.678;9.856;2022-08-19T03:34:19;100966.41;;;19.17;100.00
52839;BME280;39219;53.678;9.856;2022-08-19T03:36:48;100964.78;;;19.15;100.00
52839;BME280;39219;53.678;9.856;2022-08-19T03:39:15;100968.59;;;19.11;100.00
52839;BME280;39219;53.678;9.856;2022-08-19T03:41:44;100966.59;;;19.14;100.00
52839;BME280;39219;53.678;9.856;2022-08-19T03:44:10;100968.44;;;19.14;100.00
52839;BME280;39219;53.678;9.856;2022-08-19T03:46:37;100976.31;;;19.17;100.00
52839;BME280;39219;53.678;9.856;2022-08-19T03:49:04;100992.47;;;19.17;100.00
52839;BME280;39219;53.678;9.856;2022-08-19T03:51:34;100993.16;;;19.20;100.00
52839;BME280;39219;53.678;9.856;2022-08-19T03:54:05;100994.03;;;19.21;100.00
52839;BME280;39219;53.678;9.856;2022-08-19T03:56:33;100994.91;;;19.21;100.00
52839;BME280;39219;53.678;9.856;2022-08-19T03:59:00;100996.63;;;19.22;100.00
52839;BME280;39219;53.678;9.856;2022-08-19T04:01:28;101000.38;;;19.20;100.00
52839;BME280;39219;53.678;9.856;2022-08-19T04:03:56;101002.03;;;19.22;100.00
52839;BME280;39219;53.678;9.856;2022-08-19T04:06:25;100982.50;;;19.19;100.00
52839;BME280;39219;53.678;9.856;2022-08-19T04:08:53;100986.03;;;19.19;100.00
52839;BME280;39219;53.678;9.856;2022-08-19T04:11:23;100986.13;;;19.18;100.00
52839;BME280;39219;53.678;9.856;2022-08-19T04:13:52;100996.19;;;19.14;100.00
52839;BME280;39219;53.678;9.856;2022-08-19T04:16:19;100994.22;;;19.18;100.00
52839;BME280;39219;53.678;9.856;2022-08-19T04:18:47;100991.25;;;19.22;100.00
52839;BME280;39219;53.678;9.856;2022-08-19T04:21:16;100996.63;;;19.22;100.00
52839;BME280;39219;53.678;9.856;2022-08-19T04:23:44;100998.66;;;19.19;100.00
52839;BME280;39219;53.678;9.856;2022-08-19T04:26:12;101009.41;;;19.19;100.00
52839;BME280;39219;53.678;9.856;2022-08-19T04:28:41;101005.06;;;19.16;100.00
52839;BME280;39219;53.678;9.856;2022-08-19T04:31:12;101017.91;;;19.11;100.00
52839;BME280;39219;53.678;9.856;2022-08-19T04:33:39;101022.31;;;19.12;100.00
52839;BME280;39219;53.678;9.856;2022-08-19T04:36:06;101027.47;;;19.17;100.00
52839;BME280;39219;53.678;9.856;2022-08-19T04:38:33;101022.88;;;19.19;100.00
52839;BME280;39219;53.678;9.856;2022-08-19T04:40:59;101026.25;;;19.22;100.00
52839;BME280;39219;53.678;9.856;2022-08-19T04:43:47;101034.22;;;19.24;100.00
52839;BME280;39219;53.678;9.856;2022-08-19T04:46:15;101026.16;;;19.24;100.00
52839;BME280;39219;53.678;9.856;2022-08-19T04:48:42;101025.38;;;19.22;100.00
52839;BME280;39219;53.678;9.856;2022-08-19T04:51:10;101027.88;;;19.25;100.00
52839;BME280;39219;53.678;9.856;2022-08-19T04:53:40;101026.94;;;19.26;100.00
52839;BME280;39219;53.678;9.856;2022-08-19T04:56:10;101029.44;;;19.29;100.00
52839;BME280;39219;53.678;9.856;2022-08-19T04:58:38;101030.94;;;19.35;100.00
52839;BME280;39219;53.678;9.856;2022-08-19T05:01:06;101039.19;;;19.32;100.00
52839;BME280;39219;53.678;9.856;2022-08-19T05:03:35;101036.56;;;19.30;100.00
52839;BME280;39219;53.678;9.856;2022-08-19T05:06:04;101031.13;;;19.32;100.00
52839;BME280;39219;53.678;9.856;2022-08-19T05:08:34;101037.34;;;19.32;100.00
52839;BME280;39219;53.678;9.856;2022-08-19T05:11:00;101033.72;;;19.33;100.00
52839;BME280;39219;53.678;9.856;2022-08-19T05:13:27;101039.97;;;19.34;100.00
52839;BME280;39219;53.678;9.856;2022-08-19T05:15:55;101044.59;;;19.32;100.00
52839;BME280;39219;53.678;9.856;2022-08-19T05:18:23;101043.69;;;19.31;100.00
52839;BME280;39219;53.678;9.856;2022-08-19T05:21:08;101045.53;;;19.31;100.00
52839;BME280;39219;53.678;9.856;2022-08-19T05:23:52;101054.56;;;19.30;100.00
52839;BME280;39219;53.678;9.856;2022-08-19T05:26:19;101050.03;;;19.30;100.00
52839;BME280;39219;53.678;9.856;2022-08-19T05:28:45;101046.50;;;19.30;100.00
52839;BME280;39219;53.678;9.856;2022-08-19T05:31:12;101048.84;;;19.36;100.00
52839;BME280;39219;53.678;9.856;2022-08-19T05:33:40;101053.50;;;19.32;100.00
52839;BME280;39219;53.678;9.856;2022-08-19T05:36:07;101042.84;;;19.31;100.00
52839;BME280;39219;53.678;9.856;2022-08-19T05:38:33;101046.31;;;19.33;100.00
52839;BME280;39219;53.678;9.856;2022-08-19T05:41:06;101050.59;;;19.37;100.00
52839;BME280;39219;53.678;9.856;2022-08-19T05:43:33;101053.09;;;19.40;100.00
52839;BME280;39219;53.678;9.856;2022-08-19T05:46:00;101058.38;;;19.42;100.00
52839;BME280;39219;53.678;9.856;2022-08-19T05:48:26;101058.31;;;19.43;100.00
52839;BME280;39219;53.678;9.856;2022-08-19T05:50:54;101050.84;;;19.48;100.00
52839;BME280;39219;53.678;9.856;2022-08-19T05:53:22;101050.13;;;19.45;100.00
52839;BME280;39219;53.678;9.856;2022-08-19T05:55:48;101053.53;;;19.48;100.00
52839;BME280;39219;53.678;9.856;2022-08-19T05:58:15;101045.47;;;19.48;100.00
52839;BME280;39219;53.678;9.856;2022-08-19T06:00:43;101048.56;;;19.41;100.00
52839;BME280;39219;53.678;9.856;2022-08-19T06:03:10;101044.25;;;19.38;100.00
52839;BME280;39219;53.678;9.856;2022-08-19T06:05:36;101049.28;;;19.44;100.00
52839;BME280;39219;53.678;9.856;2022-08-19T06:08:04;101045.53;;;19.47;100.00
52839;BME280;39219;53.678;9.856;2022-08-19T06:10:32;101049.00;;;19.49;100.00
52839;BME280;39219;53.678;9.856;2022-08-19T06:12:59;101046.16;;;19.52;100.00
52839;BME280;39219;53.678;9.856;2022-08-19T06:15:26;101040.94;;;19.49;100.00
52839;BME280;39219;53.678;9.856;2022-08-19T06:17:53;101035.53;;;19.49;100.00
52839;BME280;39219;53.678;9.856;2022-08-19T06:20:19;101032.00;;;19.48;100.00
52839;BME280;39219;53.678;9.856;2022-08-19T06:22:48;101032.97;;;19.47;100.00
52839;BME280;39219;53.678;9.856;2022-08-19T06:25:17;101041.03;;;19.47;100.00
52839;BME280;39219;53.678;9.856;2022-08-19T06:27:43;101040.75;;;19.52;100.00
52839;BME280;39219;53.678;9.856;2022-08-19T06:30:11;101036.59;;;19.62;100.00
52839;BME280;39219;53.678;9.856;2022-08-19T06:32:38;101044.22;;;19.70;100.00
52839;BME280;39219;53.678;9.856;2022-08-19T06:35:06;101049.97;;;19.80;100.00
52839;BME280;39219;53.678;9.856;2022-08-19T06:37:32;101046.03;;;19.86;100.00
52839;BME280;39219;53.678;9.856;2022-08-19T06:39:59;101052.91;;;19.91;100.00
52839;BME280;39219;53.678;9.856;2022-08-19T06:42:27;101051.00;;;19.93;100.00
52839;BME280;39219;53.678;9.856;2022-08-19T06:44:53;101043.28;;;20.03;100.00
52839;BME280;39219;53.678;9.856;2022-08-19T06:47:21;101048.56;;;20.05;100.00
52839;BME280;39219;53.678;9.856;2022-08-19T06:49:47;101051.94;;;20.08;100.00
52839;BME280;39219;53.678;9.856;2022-08-19T06:52:14;101053.22;;;20.17;100.00
52839;BME280;39219;53.678;9.856;2022-08-19T06:54:41;101044.97;;;20.20;100.00
52839;BME280;39219;53.678;9.856;2022-08-19T06:57:08;101049.09;;;20.26;100.00
52839;BME280;39219;53.678;9.856;2022-08-19T06:59:39;101051.72;;;20.27;100.00
52839;BME280;39219;53.678;9.856;2022-08-19T07:02:06;101049.97;;;20.26;100.00
52839;BME280;39219;53.678;9.856;2022-08-19T07:04:35;101050.66;;;20.30;100.00
52839;BME280;39219;53.678;9.856;2022-08-19T07:07:05;101057.91;;;20.30;100.00
52839;BME280;39219;53.678;9.856;2022-08-19T07:09:33;101051.94;;;20.39;100.00
52839;BME280;39219;53.678;9.856;2022-08-19T07:12:03;101054.47;;;20.42;100.00
52839;BME280;39219;53.678;9.856;2022-08-19T07:14:30;101061.03;;;20.52;100.00
52839;BME280;39219;53.678;9.856;2022-08-19T07:16:58;101058.13;;;20.55;100.00
52839;BME280;39219;53.678;9.856;2022-08-19T07:19:25;101057.56;;;20.50;100.00
52839;BME280;39219;53.678;9.856;2022-08-19T07:21:53;101060.34;;;20.49;100.00
52839;BME280;39219;53.678;9.856;2022-08-19T07:24:21;101057.84;;;20.46;100.00
52839;BME280;39219;53.678;9.856;2022-08-19T07:26:50;101060.63;;;20.44;100.00
52839;BME280;39219;53.678;9.856;2022-08-19T07:29:19;101063.50;;;20.41;100.00
52839;BME280;39219;53.678;9.856;2022-08-19T07:31:49;101066.28;;;20.39;100.00
52839;BME280;39219;53.678;9.856;2022-08-19T07:34:17;101070.91;;;20.37;100.00
52839;BME280;39219;53.678;9.856;2022-08-19T07:36:44;101075.94;;;20.44;100.00
52839;BME280;39219;53.678;9.856;2022-08-19T07:39:14;101076.44;;;20.50;100.00
52839;BME280;39219;53.678;9.856;2022-08-19T07:41:41;101079.16;;;20.65;100.00
52839;BME280;39219;53.678;9.856;2022-08-19T07:44:09;101080.53;;;20.72;100.00
52839;BME280;39219;53.678;9.856;2022-08-19T07:46:40;101083.22;;;20.72;100.00
52839;BME280;39219;53.678;9.856;2022-08-19T07:49:07;101089.16;;;20.63;100.00
52839;BME280;39219;53.678;9.856;2022-08-19T07:51:47;101085.50;;;20.49;100.00
52839;BME280;39219;53.678;9.856;2022-08-19T07:54:14;101085.88;;;20.43;100.00
52839;BME280;39219;53.678;9.856;2022-08-19T07:56:41;101093.38;;;20.38;100.00
52839;BME280;39219;53.678;9.856;2022-08-19T07:59:07;101089.88;;;20.36;100.00
52839;BME280;39219;53.678;9.856;2022-08-19T08:01:35;101095.97;;;20.39;100.00
52839;BME280;39219;53.678;9.856;2022-08-19T08:04:02;101103.88;;;20.42;100.00
52839;BME280;39219;53.678;9.856;2022-08-19T08:06:55;101113.16;;;20.53;100.00
52839;BME280;39219;53.678;9.856;2022-08-19T08:09:42;101107.66;;;20.54;100.00
52839;BME280;39219;53.678;9.856;2022-08-19T08:12:11;101113.03;;;20.54;100.00
52839;BME280;39219;53.678;9.856;2022-08-19T08:14:41;101112.28;;;20.52;100.00
52839;BME280;39219;53.678;9.856;2022-08-19T08:17:09;101114.22;;;20.50;100.00
52839;BME280;39219;53.678;9.856;2022-08-19T08:19:36;101119.00;;;20.45;100.00
52839;BME280;39219;53.678;9.856;2022-08-19T08:22:05;101116.31;;;20.45;100.00
52839;BME280;39219;53.678;9.856;2022-08-19T08:24:32;101123.53;;;20.45;100.00
52839;BME280;39219;53.678;9.856;2022-08-19T08:27:01;101126.94;;;20.48;100.00
52839;BME280;39219;53.678;9.856;2022-08-19T08:29:29;101131.06;;;20.54;100.00
52839;BME280;39219;53.678;9.856;2022-08-19T08:31:57;101129.03;;;20.57;100.00
52839;BME280;39219;53.678;9.856;2022-08-19T08:34:23;101141.03;;;20.68;100.00
52839;BME280;39219;53.678;9.856;2022-08-19T08:36:50;101134.31;;;20.75;100.00
52839;BME280;39219;53.678;9.856;2022-08-19T08:39:20;101138.06;;;20.73;100.00
52839;BME280;39219;53.678;9.856;2022-08-19T08:41:51;101137.09;;;20.74;100.00
52839;BME280;39219;53.678;9.856;2022-08-19T08:44:23;101142.59;;;20.72;100.00
52839;BME280;39219;53.678;9.856;2022-08-19T08:46:55;101134.31;;;20.75;100.00
52839;BME280;39219;53.678;9.856;2022-08-19T08:49:39;101140.44;;;20.79;100.00
52839;BME280;39219;53.678;9.856;2022-08-19T08:52:12;101139.56;;;20.78;100.00
52839;BME280;39219;53.678;9.856;2022-08-19T08:54:45;101133.97;;;20.81;100.00
52839;BME280;39219;53.678;9.856;2022-08-19T08:57:15;101125.69;;;20.84;100.00
52839;BME280;39219;53.678;9.856;2022-08-19T08:59:47;101132.81;;;20.85;100.00
52839;BME280;39219;53.678;9.856;2022-08-19T09:02:16;101128.75;;;20.78;100.00
52839;BME280;39219;53.678;9.856;2022-08-19T09:04:43;101128.91;;;20.75;100.00
52839;BME280;39219;53.678;9.856;2022-08-19T09:07:21;101124.34;;;20.61;100.00
52839;BME280;39219;53.678;9.856;2022-08-19T09:09:56;101136.69;;;20.65;100.00
52839;BME280;39219;53.678;9.856;2022-08-19T09:12:34;101134.78;;;20.67;100.00
52839;BME280;39219;53.678;9.856;2022-08-19T09:15:06;101140.44;;;20.79;100.00
52839;BME280;39219;53.678;9.856;2022-08-19T09:17:34;101134.06;;;20.80;100.00
52839;BME280;39219;53.678;9.856;2022-08-19T09:20:04;101135.34;;;20.89;100.00
52839;BME280;39219;53.678;9.856;2022-08-19T09:22:33;101151.19;;;21.09;100.00
52839;BME280;39219;53.678;9.856;2022-08-19T09:25:03;101138.34;;;21.27;100.00
52839;BME280;39219;53.678;9.856;2022-08-19T09:27:31;101141.16;;;21.40;100.00
52839;BME280;39219;53.678;9.856;2022-08-19T09:29:58;101143.84;;;21.55;100.00
52839;BME280;39219;53.678;9.856;2022-08-19T09:32:24;101146.84;;;21.65;99.58
52839;BME280;39219;53.678;9.856;2022-08-19T09:34:52;101135.31;;;21.90;99.03
52839;BME280;39219;53.678;9.856;2022-08-19T09:37:20;101139.94;;;21.88;96.40
52839;BME280;39219;53.678;9.856;2022-08-19T09:39:47;101134.19;;;21.80;95.73
52839;BME280;39219;53.678;9.856;2022-08-19T09:42:15;101141.38;;;21.66;97.09
52839;BME280;39219;53.678;9.856;2022-08-19T09:44:42;101136.16;;;21.63;98.08
52839;BME280;39219;53.678;9.856;2022-08-19T09:47:10;101136.03;;;21.65;98.28
52839;BME280;39219;53.678;9.856;2022-08-19T09:49:38;101136.16;;;21.63;96.66
52839;BME280;39219;53.678;9.856;2022-08-19T09:52:05;101139.88;;;21.60;97.43
52839;BME280;39219;53.678;9.856;2022-08-19T09:54:33;101142.03;;;21.70;98.54
52839;BME280;39219;53.678;9.856;2022-08-19T09:57:00;101137.09;;;21.77;98.01
52839;BME280;39219;53.678;9.856;2022-08-19T09:59:28;101132.09;;;21.70;98.29
52839;BME280;39219;53.678;9.856;2022-08-19T10:01:55;101124.47;;;21.63;98.56
52839;BME280;39219;53.678;9.856;2022-08-19T10:04:22;101134.13;;;21.52;99.17
52839;BME280;39219;53.678;9.856;2022-08-19T10:07:08;101134.00;;;21.39;100.00
52839;BME280;39219;53.678;9.856;2022-08-19T10:09:35;101139.72;;;21.49;100.00
52839;BME280;39219;53.678;9.856;2022-08-19T10:12:02;101143.88;;;21.69;100.00
52839;BME280;39219;53.678;9.856;2022-08-19T10:14:31;101135.63;;;21.85;99.47
52839;BME280;39219;53.678;9.856;2022-08-19T10:16:57;101135.75;;;21.84;95.20
52839;BME280;39219;53.678;9.856;2022-08-19T10:19:25;101147.72;;;21.80;97.73
52839;BME280;39219;53.678;9.856;2022-08-19T10:21:53;101143.56;;;21.74;97.73
52839;BME280;39219;53.678;9.856;2022-08-19T10:24:20;101151.75;;;21.58;96.46
52839;BME280;39219;53.678;9.856;2022-08-19T10:26:49;101158.44;;;21.52;98.17
52839;BME280;39219;53.678;9.856;2022-08-19T10:29:16;101151.56;;;21.47;98.81
52839;BME280;39219;53.678;9.856;2022-08-19T10:31:43;101151.88;;;21.42;98.52
52839;BME280;39219;53.678;9.856;2022-08-19T10:34:12;101146.28;;;21.30;98.66
52839;BME280;39219;53.678;9.856;2022-08-19T10:36:39;101145.31;;;21.46;99.07
52839;BME280;39219;53.678;9.856;2022-08-19T10:39:07;101148.16;;;21.57;97.78
52839;BME280;39219;53.678;9.856;2022-08-19T10:41:36;101142.66;;;21.88;97.52
52839;BME280;39219;53.678;9.856;2022-08-19T10:44:05;101136.97;;;22.20;95.40
52839;BME280;39219;53.678;9.856;2022-08-19T10:46:33;101132.44;;;22.48;93.12
52839;BME280;39219;53.678;9.856;2022-08-19T10:49:04;101137.25;;;22.70;92.47
52839;BME280;39219;53.678;9.856;2022-08-19T10:51:31;101139.75;;;22.99;90.09
52839;BME280;39219;53.678;9.856;2022-08-19T10:54:15;101132.19;;;23.43;88.87
52839;BME280;39219;53.678;9.856;2022-08-19T10:56:42;101127.13;;;23.76;86.81
52839;BME280;39219;53.678;9.856;2022-08-19T10:59:18;101133.03;;;23.94;82.57
52839;BME280;39219;53.678;9.856;2022-08-19T11:01:45;101126.84;;;23.92;83.20
52839;BME280;39219;53.678;9.856;2022-08-19T11:04:13;101130.09;;;23.97;81.92
52839;BME280;39219;53.678;9.856;2022-08-19T11:06:43;101123.63;;;24.24;82.81
52839;BME280;39219;53.678;9.856;2022-08-19T11:09:12;101124.28;;;24.39;79.85
52839;BME280;39219;53.678;9.856;2022-08-19T11:11:39;101122.84;;;24.82;78.28
52839;BME280;39219;53.678;9.856;2022-08-19T11:14:07;101130.09;;;24.70;79.19
52839;BME280;39219;53.678;9.856;2022-08-19T11:16:35;101127.69;;;24.65;78.69
52839;BME280;39219;53.678;9.856;2022-08-19T11:19:03;101127.19;;;24.96;79.21
52839;BME280;39219;53.678;9.856;2022-08-19T11:21:34;101127.09;;;25.20;76.92
52839;BME280;39219;53.678;9.856;2022-08-19T11:24:04;101127.97;;;25.21;76.53
52839;BME280;39219;53.678;9.856;2022-08-19T11:26:31;101135.00;;;25.23;76.50
52839;BME280;39219;53.678;9.856;2022-08-19T11:28:59;101137.09;;;25.20;75.95
52839;BME280;39219;53.678;9.856;2022-08-19T11:31:28;101135.41;;;25.41;75.16
52839;BME280;39219;53.678;9.856;2022-08-19T11:33:56;101138.59;;;25.58;74.27
52839;BME280;39219;53.678;9.856;2022-08-19T11:36:22;101136.13;;;25.55;74.08
52839;BME280;39219;53.678;9.856;2022-08-19T11:38:50;101137.47;;;25.38;74.62
52839;BME280;39219;53.678;9.856;2022-08-19T11:41:19;101132.72;;;24.83;76.18
52839;BME280;39219;53.678;9.856;2022-08-19T11:43:46;101137.53;;;24.55;77.91
52839;BME280;39219;53.678;9.856;2022-08-19T11:46:14;101131.97;;;24.45;78.45
52839;BME280;39219;53.678;9.856;2022-08-19T11:48:41;101137.44;;;24.57;78.16
52839;BME280;39219;53.678;9.856;2022-08-19T11:51:16;101128.22;;;24.70;77.01
52839;BME280;39219;53.678;9.856;2022-08-19T11:53:44;101135.69;;;24.80;75.83
52839;BME280;39219;53.678;9.856;2022-08-19T11:56:12;101125.59;;;24.93;75.20
52839;BME280;39219;53.678;9.856;2022-08-19T11:58:39;101128.06;;;25.19;76.29
52839;BME280;39219;53.678;9.856;2022-08-19T12:01:07;101123.53;;;25.54;73.90
52839;BME280;39219;53.678;9.856;2022-08-19T12:03:34;101117.22;;;26.53;70.25
52839;BME280;39219;53.678;9.856;2022-08-19T12:06:04;101120.94;;;27.15;66.75
52839;BME280;39219;53.678;9.856;2022-08-19T12:08:30;101119.88;;;27.38;65.13
52839;BME280;39219;53.678;9.856;2022-08-19T12:10:57;101128.81;;;27.81;64.32
52839;BME280;39219;53.678;9.856;2022-08-19T12:13:27;101125.66;;;27.44;63.68
52839;BME280;39219;53.678;9.856;2022-08-19T12:15:53;101125.34;;;26.85;65.46
52839;BME280;39219;53.678;9.856;2022-08-19T12:18:20;101128.06;;;26.31;68.33
52839;BME280;39219;53.678;9.856;2022-08-19T12:20:46;101133.25;;;25.91;68.34
52839;BME280;39219;53.678;9.856;2022-08-19T12:23:13;101119.47;;;25.60;72.57
52839;BME280;39219;53.678;9.856;2022-08-19T12:25:44;101124.66;;;25.51;71.50
52839;BME280;39219;53.678;9.856;2022-08-19T12:28:17;101125.91;;;25.47;72.56
52839;BME280;39219;53.678;9.856;2022-08-19T12:30:46;101131.06;;;25.39;73.13
52839;BME280;39219;53.678;9.856;2022-08-19T12:33:13;101127.81;;;25.22;74.04
52839;BME280;39219;53.678;9.856;2022-08-19T12:35:40;101121.53;;;25.22;74.04
52839;BME280;39219;53.678;9.856;2022-08-19T12:38:07;101127.84;;;25.11;74.97
52839;BME280;39219;53.678;9.856;2022-08-19T12:40:33;101119.16;;;24.83;73.93
52839;BME280;39219;53.678;9.856;2022-08-19T12:43:00;101122.03;;;24.68;75.77
52839;BME280;39219;53.678;9.856;2022-08-19T12:45:26;101114.63;;;24.70;77.19
52839;BME280;39219;53.678;9.856;2022-08-19T12:47:54;101109.13;;;24.72;75.35
52839;BME280;39219;53.678;9.856;2022-08-19T12:50:21;101110.09;;;24.71;76.49